Bell Ranch, New Mexico
Current Conditions -  °F | °C
As of 9:53 PM on Monday 26 Jan 2015 (Local Time) from KTCC Reporting Station
Clear Clear  
Wind Chill: 39°   Ceiling: Unl
Heat Index: 44°   Visibility: 10mi
Dew Point: 33°   Wind: 10mph
Humidity: 65%   Direction: 280°W
Pressure: 30.27"   Gusts: NA
Location:  35.59°N, 104.11°W
Report Text: KTCC 270453Z AUTO 28009KT 10SM CLR 07/01 A3027 RMK AO2 SLP239 T00670006
Loading
Personal Weather Stations






























Interactive Weather Map New forecast layout! Learn more

10-Day Weather Forecast

Advertisements
Track Severe Weather on mobile